sensor_id;sensor_type;location;lat;lon;timestamp;P1;durP1;ratioP1;P2;durP2;ratioP2
920;SDS011;447;51.332;6.778;2022-07-29T00:01:31;2.57;;;1.80;;
920;SDS011;447;51.332;6.778;2022-07-29T00:03:57;2.53;;;1.60;;
920;SDS011;447;51.332;6.778;2022-07-29T00:06:23;3.20;;;1.77;;
920;SDS011;447;51.332;6.778;2022-07-29T00:08:49;2.50;;;1.70;;
920;SDS011;447;51.332;6.778;2022-07-29T00:11:19;3.93;;;2.07;;
920;SDS011;447;51.332;6.778;2022-07-29T00:13:45;2.53;;;1.60;;
920;SDS011;447;51.332;6.778;2022-07-29T00:16:14;3.50;;;2.30;;
920;SDS011;447;51.332;6.778;2022-07-29T00:18:40;3.60;;;1.77;;
920;SDS011;447;51.332;6.778;2022-07-29T00:21:11;2.13;;;1.87;;
920;SDS011;447;51.332;6.778;2022-07-29T00:23:42;2.57;;;1.60;;
920;SDS011;447;51.332;6.778;2022-07-29T00:26:12;2.90;;;1.60;;
920;SDS011;447;51.332;6.778;2022-07-29T00:28:40;4.30;;;1.70;;
920;SDS011;447;51.332;6.778;2022-07-29T00:31:06;2.30;;;1.47;;
920;SDS011;447;51.332;6.778;2022-07-29T00:33:34;2.40;;;1.43;;
920;SDS011;447;51.332;6.778;2022-07-29T00:36:18;4.50;;;1.60;;
920;SDS011;447;51.332;6.778;2022-07-29T00:38:47;2.57;;;1.83;;
920;SDS011;447;51.332;6.778;2022-07-29T00:41:16;1.80;;;1.70;;
920;SDS011;447;51.332;6.778;2022-07-29T00:43:43;4.80;;;2.20;;
920;SDS011;447;51.332;6.778;2022-07-29T00:46:10;4.10;;;1.73;;
920;SDS011;447;51.332;6.778;2022-07-29T00:48:36;2.90;;;1.80;;
920;SDS011;447;51.332;6.778;2022-07-29T00:51:05;1.73;;;1.50;;
920;SDS011;447;51.332;6.778;2022-07-29T00:53:35;2.57;;;1.70;;
920;SDS011;447;51.332;6.778;2022-07-29T00:56:03;2.87;;;1.40;;
920;SDS011;447;51.332;6.778;2022-07-29T00:58:29;4.17;;;1.90;;
920;SDS011;447;51.332;6.778;2022-07-29T01:00:59;2.57;;;1.80;;
920;SDS011;447;51.332;6.778;2022-07-29T01:03:30;1.67;;;1.53;;
920;SDS011;447;51.332;6.778;2022-07-29T01:05:56;1.93;;;1.70;;
920;SDS011;447;51.332;6.778;2022-07-29T01:08:26;1.90;;;1.60;;
920;SDS011;447;51.332;6.778;2022-07-29T01:10:52;1.57;;;1.47;;
920;SDS011;447;51.332;6.778;2022-07-29T01:13:19;3.73;;;1.80;;
920;SDS011;447;51.332;6.778;2022-07-29T01:15:54;2.90;;;1.50;;
920;SDS011;447;51.332;6.778;2022-07-29T01:18:39;2.37;;;1.73;;
920;SDS011;447;51.332;6.778;2022-07-29T01:30:09;2.70;;;1.80;;
920;SDS011;447;51.332;6.778;2022-07-29T01:32:36;4.23;;;1.80;;
920;SDS011;447;51.332;6.778;2022-07-29T01:35:10;3.77;;;2.00;;
920;SDS011;447;51.332;6.778;2022-07-29T01:37:54;3.00;;;1.73;;
920;SDS011;447;51.332;6.778;2022-07-29T01:40:40;2.47;;;2.00;;
920;SDS011;447;51.332;6.778;2022-07-29T01:43:16;2.90;;;1.90;;
920;SDS011;447;51.332;6.778;2022-07-29T01:45:47;3.70;;;1.90;;
920;SDS011;447;51.332;6.778;2022-07-29T01:48:31;4.50;;;2.30;;
920;SDS011;447;51.332;6.778;2022-07-29T01:51:11;2.80;;;1.93;;
920;SDS011;447;51.332;6.778;2022-07-29T01:53:50;2.37;;;2.07;;
920;SDS011;447;51.332;6.778;2022-07-29T01:56:27;3.93;;;2.20;;
920;SDS011;447;51.332;6.778;2022-07-29T01:59:01;3.60;;;2.67;;
920;SDS011;447;51.332;6.778;2022-07-29T02:01:30;4.07;;;2.30;;
920;SDS011;447;51.332;6.778;2022-07-29T02:03:57;4.70;;;2.53;;
920;SDS011;447;51.332;6.778;2022-07-29T02:06:27;4.60;;;2.67;;
920;SDS011;447;51.332;6.778;2022-07-29T02:08:59;3.63;;;2.07;;
920;SDS011;447;51.332;6.778;2022-07-29T02:11:27;3.00;;;2.00;;
920;SDS011;447;51.332;6.778;2022-07-29T02:13:57;3.73;;;2.77;;
920;SDS011;447;51.332;6.778;2022-07-29T02:16:30;2.77;;;2.40;;
920;SDS011;447;51.332;6.778;2022-07-29T02:19:02;2.60;;;2.40;;
920;SDS011;447;51.332;6.778;2022-07-29T02:21:35;3.07;;;2.77;;
920;SDS011;447;51.332;6.778;2022-07-29T02:24:03;5.40;;;2.70;;
920;SDS011;447;51.332;6.778;2022-07-29T02:26:30;3.30;;;2.57;;
920;SDS011;447;51.332;6.778;2022-07-29T02:28:58;4.17;;;2.90;;
920;SDS011;447;51.332;6.778;2022-07-29T02:31:28;3.10;;;2.80;;
920;SDS011;447;51.332;6.778;2022-07-29T02:34:02;3.63;;;2.87;;
920;SDS011;447;51.332;6.778;2022-07-29T02:36:31;3.00;;;2.67;;
920;SDS011;447;51.332;6.778;2022-07-29T02:39:01;3.80;;;3.40;;
920;SDS011;447;51.332;6.778;2022-07-29T02:42:03;4.10;;;3.27;;
920;SDS011;447;51.332;6.778;2022-07-29T02:44:29;3.40;;;3.10;;
920;SDS011;447;51.332;6.778;2022-07-29T02:46:59;4.30;;;2.60;;
920;SDS011;447;51.332;6.778;2022-07-29T02:52:18;3.37;;;2.70;;
920;SDS011;447;51.332;6.778;2022-07-29T02:57:19;3.87;;;3.00;;
920;SDS011;447;51.332;6.778;2022-07-29T02:59:48;4.43;;;2.87;;
920;SDS011;447;51.332;6.778;2022-07-29T03:02:20;5.63;;;2.90;;
920;SDS011;447;51.332;6.778;2022-07-29T03:04:49;3.80;;;2.77;;
920;SDS011;447;51.332;6.778;2022-07-29T03:07:18;3.23;;;2.53;;
920;SDS011;447;51.332;6.778;2022-07-29T03:09:49;3.00;;;2.60;;
920;SDS011;447;51.332;6.778;2022-07-29T03:12:18;2.60;;;2.37;;
920;SDS011;447;51.332;6.778;2022-07-29T03:14:45;5.93;;;2.90;;
920;SDS011;447;51.332;6.778;2022-07-29T03:17:14;2.57;;;2.20;;
920;SDS011;447;51.332;6.778;2022-07-29T03:19:46;4.33;;;2.53;;
920;SDS011;447;51.332;6.778;2022-07-29T03:22:18;2.10;;;1.90;;
920;SDS011;447;51.332;6.778;2022-07-29T03:24:44;3.10;;;2.20;;
920;SDS011;447;51.332;6.778;2022-07-29T03:27:12;3.40;;;2.30;;
920;SDS011;447;51.332;6.778;2022-07-29T03:29:58;3.00;;;2.00;;
920;SDS011;447;51.332;6.778;2022-07-29T03:32:24;3.90;;;2.50;;
920;SDS011;447;51.332;6.778;2022-07-29T03:34:53;2.80;;;2.10;;
920;SDS011;447;51.332;6.778;2022-07-29T03:37:21;4.53;;;2.20;;
920;SDS011;447;51.332;6.778;2022-07-29T03:39:49;3.00;;;2.40;;
920;SDS011;447;51.332;6.778;2022-07-29T03:42:20;2.13;;;1.63;;
920;SDS011;447;51.332;6.778;2022-07-29T03:44:51;2.73;;;2.40;;
920;SDS011;447;51.332;6.778;2022-07-29T03:47:23;2.47;;;1.93;;
920;SDS011;447;51.332;6.778;2022-07-29T03:49:53;3.50;;;1.90;;
920;SDS011;447;51.332;6.778;2022-07-29T03:52:25;4.87;;;1.90;;
920;SDS011;447;51.332;6.778;2022-07-29T03:54:53;2.60;;;1.67;;
920;SDS011;447;51.332;6.778;2022-07-29T03:57:20;2.10;;;1.60;;
920;SDS011;447;51.332;6.778;2022-07-29T03:59:52;4.97;;;1.70;;
920;SDS011;447;51.332;6.778;2022-07-29T04:02:21;2.50;;;1.53;;
920;SDS011;447;51.332;6.778;2022-07-29T04:04:48;4.17;;;2.30;;
920;SDS011;447;51.332;6.778;2022-07-29T04:07:16;2.50;;;1.87;;
920;SDS011;447;51.332;6.778;2022-07-29T04:09:44;3.20;;;1.80;;
920;SDS011;447;51.332;6.778;2022-07-29T04:12:10;2.27;;;1.77;;
920;SDS011;447;51.332;6.778;2022-07-29T04:14:36;1.90;;;1.70;;
920;SDS011;447;51.332;6.778;2022-07-29T04:17:03;2.37;;;1.97;;
920;SDS011;447;51.332;6.778;2022-07-29T04:19:30;1.77;;;1.50;;
920;SDS011;447;51.332;6.778;2022-07-29T04:21:57;1.60;;;1.40;;
920;SDS011;447;51.332;6.778;2022-07-29T04:24:27;3.43;;;1.70;;
920;SDS011;447;51.332;6.778;2022-07-29T04:26:53;5.77;;;1.80;;
920;SDS011;447;51.332;6.778;2022-07-29T04:29:22;2.20;;;1.70;;
920;SDS011;447;51.332;6.778;2022-07-29T04:31:51;5.00;;;1.60;;
920;SDS011;447;51.332;6.778;2022-07-29T04:34:17;2.87;;;1.87;;
920;SDS011;447;51.332;6.778;2022-07-29T04:36:46;3.43;;;1.43;;
920;SDS011;447;51.332;6.778;2022-07-29T04:39:12;2.30;;;1.70;;
920;SDS011;447;51.332;6.778;2022-07-29T04:41:40;6.33;;;1.80;;
920;SDS011;447;51.332;6.778;2022-07-29T04:44:06;3.63;;;1.63;;
920;SDS011;447;51.332;6.778;2022-07-29T04:46:35;3.17;;;1.93;;
920;SDS011;447;51.332;6.778;2022-07-29T04:49:03;3.33;;;1.87;;
920;SDS011;447;51.332;6.778;2022-07-29T04:51:29;2.70;;;1.70;;
920;SDS011;447;51.332;6.778;2022-07-29T04:53:55;2.70;;;1.60;;
920;SDS011;447;51.332;6.778;2022-07-29T04:56:21;4.23;;;2.17;;
920;SDS011;447;51.332;6.778;2022-07-29T04:58:47;3.73;;;1.90;;
920;SDS011;447;51.332;6.778;2022-07-29T05:01:13;3.73;;;1.83;;
920;SDS011;447;51.332;6.778;2022-07-29T05:03:40;2.50;;;2.07;;
920;SDS011;447;51.332;6.778;2022-07-29T05:06:06;2.60;;;1.80;;
920;SDS011;447;51.332;6.778;2022-07-29T05:08:34;7.47;;;2.13;;
920;SDS011;447;51.332;6.778;2022-07-29T05:11:00;3.20;;;2.27;;
920;SDS011;447;51.332;6.778;2022-07-29T05:13:29;2.70;;;1.80;;
920;SDS011;447;51.332;6.778;2022-07-29T05:15:55;2.07;;;1.87;;
920;SDS011;447;51.332;6.778;2022-07-29T05:18:26;2.17;;;1.53;;
920;SDS011;447;51.332;6.778;2022-07-29T05:20:51;2.53;;;1.87;;
920;SDS011;447;51.332;6.778;2022-07-29T05:23:21;2.60;;;2.07;;
920;SDS011;447;51.332;6.778;2022-07-29T05:25:49;3.80;;;2.20;;
920;SDS011;447;51.332;6.778;2022-07-29T05:28:17;3.30;;;2.10;;
920;SDS011;447;51.332;6.778;2022-07-29T05:30:43;3.07;;;2.40;;
920;SDS011;447;51.332;6.778;2022-07-29T05:33:09;7.03;;;2.20;;
920;SDS011;447;51.332;6.778;2022-07-29T05:35:41;2.40;;;1.90;;
920;SDS011;447;51.332;6.778;2022-07-29T05:38:07;3.33;;;2.30;;
920;SDS011;447;51.332;6.778;2022-07-29T05:40:35;2.23;;;1.90;;
920;SDS011;447;51.332;6.778;2022-07-29T05:43:04;4.27;;;2.30;;
920;SDS011;447;51.332;6.778;2022-07-29T05:45:30;2.60;;;2.00;;
920;SDS011;447;51.332;6.778;2022-07-29T05:47:56;2.20;;;1.90;;
920;SDS011;447;51.332;6.778;2022-07-29T05:50:22;2.33;;;1.90;;
920;SDS011;447;51.332;6.778;2022-07-29T05:52:50;4.40;;;2.40;;
920;SDS011;447;51.332;6.778;2022-07-29T05:55:21;2.53;;;1.67;;
920;SDS011;447;51.332;6.778;2022-07-29T05:57:47;3.57;;;2.47;;
920;SDS011;447;51.332;6.778;2022-07-29T06:00:22;3.30;;;2.03;;
920;SDS011;447;51.332;6.778;2022-07-29T06:02:51;3.10;;;1.60;;
920;SDS011;447;51.332;6.778;2022-07-29T06:05:21;3.73;;;1.80;;
920;SDS011;447;51.332;6.778;2022-07-29T06:07:48;5.30;;;2.07;;
920;SDS011;447;51.332;6.778;2022-07-29T06:10:14;4.43;;;1.80;;
920;SDS011;447;51.332;6.778;2022-07-29T06:12:40;3.30;;;1.93;;
920;SDS011;447;51.332;6.778;2022-07-29T06:15:06;2.87;;;2.20;;
920;SDS011;447;51.332;6.778;2022-07-29T06:17:32;3.77;;;2.10;;
920;SDS011;447;51.332;6.778;2022-07-29T06:19:58;4.00;;;2.17;;
920;SDS011;447;51.332;6.778;2022-07-29T06:22:26;2.30;;;1.80;;
920;SDS011;447;51.332;6.778;2022-07-29T06:24:52;4.47;;;2.00;;
920;SDS011;447;51.332;6.778;2022-07-29T06:27:21;2.90;;;2.00;;
920;SDS011;447;51.332;6.778;2022-07-29T06:29:51;2.10;;;1.60;;
920;SDS011;447;51.332;6.778;2022-07-29T06:32:19;2.60;;;2.20;;
920;SDS011;447;51.332;6.778;2022-07-29T06:34:47;3.37;;;1.73;;
920;SDS011;447;51.332;6.778;2022-07-29T06:37:16;4.83;;;2.07;;
920;SDS011;447;51.332;6.778;2022-07-29T06:39:44;2.97;;;1.80;;
920;SDS011;447;51.332;6.778;2022-07-29T06:42:10;2.80;;;1.80;;
920;SDS011;447;51.332;6.778;2022-07-29T06:44:36;2.13;;;1.67;;
920;SDS011;447;51.332;6.778;2022-07-29T06:47:07;3.10;;;2.03;;
920;SDS011;447;51.332;6.778;2022-07-29T06:49:34;3.30;;;2.40;;
920;SDS011;447;51.332;6.778;2022-07-29T06:52:02;2.27;;;2.07;;
920;SDS011;447;51.332;6.778;2022-07-29T06:54:28;2.20;;;1.90;;
920;SDS011;447;51.332;6.778;2022-07-29T06:56:54;2.10;;;1.60;;
920;SDS011;447;51.332;6.778;2022-07-29T06:59:22;2.27;;;1.97;;
920;SDS011;447;51.332;6.778;2022-07-29T07:01:48;2.40;;;1.93;;
920;SDS011;447;51.332;6.778;2022-07-29T07:04:35;2.80;;;1.80;;
920;SDS011;447;51.332;6.778;2022-07-29T07:07:01;3.37;;;2.00;;
920;SDS011;447;51.332;6.778;2022-07-29T07:09:30;3.50;;;2.07;;
920;SDS011;447;51.332;6.778;2022-07-29T07:11:58;2.20;;;1.90;;
920;SDS011;447;51.332;6.778;2022-07-29T07:14:29;4.07;;;2.03;;
920;SDS011;447;51.332;6.778;2022-07-29T07:17:00;2.90;;;2.00;;
920;SDS011;447;51.332;6.778;2022-07-29T07:19:31;3.27;;;2.00;;
920;SDS011;447;51.332;6.778;2022-07-29T07:21:59;3.77;;;2.33;;
920;SDS011;447;51.332;6.778;2022-07-29T07:24:25;3.83;;;2.10;;
920;SDS011;447;51.332;6.778;2022-07-29T07:26:51;4.57;;;2.33;;
920;SDS011;447;51.332;6.778;2022-07-29T07:29:17;3.23;;;1.87;;
920;SDS011;447;51.332;6.778;2022-07-29T07:31:46;4.73;;;1.87;;
920;SDS011;447;51.332;6.778;2022-07-29T07:34:12;2.47;;;1.80;;
920;SDS011;447;51.332;6.778;2022-07-29T07:36:42;3.70;;;1.60;;
920;SDS011;447;51.332;6.778;2022-07-29T07:39:08;2.60;;;1.90;;
920;SDS011;447;51.332;6.778;2022-07-29T07:41:34;3.10;;;2.00;;
920;SDS011;447;51.332;6.778;2022-07-29T07:44:00;2.27;;;1.73;;
920;SDS011;447;51.332;6.778;2022-07-29T07:46:26;3.27;;;2.30;;
920;SDS011;447;51.332;6.778;2022-07-29T07:48:55;3.20;;;2.00;;
920;SDS011;447;51.332;6.778;2022-07-29T07:51:20;2.10;;;1.70;;
920;SDS011;447;51.332;6.778;2022-07-29T07:53:54;3.40;;;1.97;;
920;SDS011;447;51.332;6.778;2022-07-29T07:56:25;3.17;;;2.33;;
920;SDS011;447;51.332;6.778;2022-07-29T07:58:51;2.67;;;1.50;;
920;SDS011;447;51.332;6.778;2022-07-29T08:01:21;3.03;;;2.10;;
920;SDS011;447;51.332;6.778;2022-07-29T08:03:48;2.70;;;2.00;;
920;SDS011;447;51.332;6.778;2022-07-29T08:06:17;4.23;;;2.17;;
920;SDS011;447;51.332;6.778;2022-07-29T08:08:45;2.77;;;1.77;;
920;SDS011;447;51.332;6.778;2022-07-29T08:11:13;2.30;;;1.70;;
920;SDS011;447;51.332;6.778;2022-07-29T08:13:42;3.00;;;2.07;;
920;SDS011;447;51.332;6.778;2022-07-29T08:16:11;6.07;;;2.30;;
920;SDS011;447;51.332;6.778;2022-07-29T08:18:38;3.57;;;2.23;;
920;SDS011;447;51.332;6.778;2022-07-29T08:21:05;2.73;;;1.80;;
920;SDS011;447;51.332;6.778;2022-07-29T08:23:32;2.10;;;1.70;;
920;SDS011;447;51.332;6.778;2022-07-29T08:26:07;3.73;;;2.03;;
920;SDS011;447;51.332;6.778;2022-07-29T08:28:41;2.70;;;1.90;;
920;SDS011;447;51.332;6.778;2022-07-29T08:31:17;2.60;;;2.10;;
920;SDS011;447;51.332;6.778;2022-07-29T08:33:44;2.50;;;2.03;;
920;SDS011;447;51.332;6.778;2022-07-29T08:36:12;2.87;;;2.33;;
920;SDS011;447;51.332;6.778;2022-07-29T08:38:43;2.27;;;1.87;;
920;SDS011;447;51.332;6.778;2022-07-29T08:41:11;2.90;;;2.30;;
920;SDS011;447;51.332;6.778;2022-07-29T08:43:39;3.03;;;1.83;;
920;SDS011;447;51.332;6.778;2022-07-29T08:46:06;4.43;;;2.00;;
920;SDS011;447;51.332;6.778;2022-07-29T08:48:32;2.50;;;2.17;;
920;SDS011;447;51.332;6.778;2022-07-29T08:50:59;3.13;;;2.20;;
920;SDS011;447;51.332;6.778;2022-07-29T08:54:06;2.37;;;1.90;;
920;SDS011;447;51.332;6.778;2022-07-29T08:56:36;3.00;;;2.50;;
920;SDS011;447;51.332;6.778;2022-07-29T08:59:06;3.03;;;2.10;;
920;SDS011;447;51.332;6.778;2022-07-29T09:01:35;3.97;;;2.07;;
920;SDS011;447;51.332;6.778;2022-07-29T09:04:05;2.63;;;1.60;;
920;SDS011;447;51.332;6.778;2022-07-29T09:06:42;2.33;;;2.00;;
920;SDS011;447;51.332;6.778;2022-07-29T09:09:10;2.13;;;1.90;;
920;SDS011;447;51.332;6.778;2022-07-29T09:11:39;3.97;;;2.40;;
920;SDS011;447;51.332;6.778;2022-07-29T09:14:11;4.57;;;2.83;;
920;SDS011;447;51.332;6.778;2022-07-29T09:19:27;3.57;;;2.10;;
920;SDS011;447;51.332;6.778;2022-07-29T09:22:01;2.63;;;2.07;;
920;SDS011;447;51.332;6.778;2022-07-29T09:27:19;3.80;;;2.23;;
920;SDS011;447;51.332;6.778;2022-07-29T09:29:56;3.30;;;2.13;;
920;SDS011;447;51.332;6.778;2022-07-29T09:32:27;2.90;;;2.60;;
920;SDS011;447;51.332;6.778;2022-07-29T09:37:43;4.60;;;1.90;;
920;SDS011;447;51.332;6.778;2022-07-29T09:40:20;2.80;;;2.00;;
920;SDS011;447;51.332;6.778;2022-07-29T09:42:48;6.23;;;2.50;;
920;SDS011;447;51.332;6.778;2022-07-29T09:45:34;3.20;;;2.40;;
920;SDS011;447;51.332;6.778;2022-07-29T09:48:13;2.80;;;2.07;;
920;SDS011;447;51.332;6.778;2022-07-29T09:50:42;4.07;;;2.53;;
920;SDS011;447;51.332;6.778;2022-07-29T09:53:09;2.87;;;2.43;;
920;SDS011;447;51.332;6.778;2022-07-29T09:55:48;2.60;;;2.10;;
920;SDS011;447;51.332;6.778;2022-07-29T09:58:18;5.03;;;2.50;;
920;SDS011;447;51.332;6.778;2022-07-29T10:00:46;3.70;;;2.27;;
920;SDS011;447;51.332;6.778;2022-07-29T10:03:17;4.80;;;2.93;;
920;SDS011;447;51.332;6.778;2022-07-29T10:05:44;2.93;;;2.30;;
920;SDS011;447;51.332;6.778;2022-07-29T10:08:11;3.20;;;2.27;;
920;SDS011;447;51.332;6.778;2022-07-29T10:10:39;5.00;;;3.13;;
920;SDS011;447;51.332;6.778;2022-07-29T10:13:11;3.10;;;2.50;;
920;SDS011;447;51.332;6.778;2022-07-29T10:15:39;5.57;;;2.60;;
920;SDS011;447;51.332;6.778;2022-07-29T10:18:08;4.30;;;3.40;;
920;SDS011;447;51.332;6.778;2022-07-29T10:20:36;2.70;;;2.50;;
920;SDS011;447;51.332;6.778;2022-07-29T10:23:08;3.57;;;2.30;;
920;SDS011;447;51.332;6.778;2022-07-29T10:25:34;3.50;;;2.67;;
920;SDS011;447;51.332;6.778;2022-07-29T10:28:03;5.10;;;2.20;;
920;SDS011;447;51.332;6.778;2022-07-29T10:30:31;4.77;;;2.20;;
920;SDS011;447;51.332;6.778;2022-07-29T10:42:19;2.67;;;2.40;;
920;SDS011;447;51.332;6.778;2022-07-29T10:44:50;3.57;;;2.50;;
920;SDS011;447;51.332;6.778;2022-07-29T10:49:59;2.90;;;2.13;;
920;SDS011;447;51.332;6.778;2022-07-29T10:55:34;2.90;;;2.20;;
920;SDS011;447;51.332;6.778;2022-07-29T10:58:13;4.20;;;2.80;;
920;SDS011;447;51.332;6.778;2022-07-29T11:00:44;3.70;;;2.60;;
920;SDS011;447;51.332;6.778;2022-07-29T11:06:21;3.50;;;2.60;;
920;SDS011;447;51.332;6.778;2022-07-29T11:08:47;4.67;;;2.80;;
920;SDS011;447;51.332;6.778;2022-07-29T11:11:59;4.77;;;2.63;;
920;SDS011;447;51.332;6.778;2022-07-29T11:20:36;5.57;;;3.07;;
920;SDS011;447;51.332;6.778;2022-07-29T11:26:21;8.10;;;3.67;;
920;SDS011;447;51.332;6.778;2022-07-29T11:34:21;6.73;;;2.70;;
920;SDS011;447;51.332;6.778;2022-07-29T11:39:47;3.60;;;2.97;;
920;SDS011;447;51.332;6.778;2022-07-29T11:47:21;5.70;;;3.17;;
920;SDS011;447;51.332;6.778;2022-07-29T11:49:48;3.63;;;2.70;;
920;SDS011;447;51.332;6.778;2022-07-29T11:52:24;5.83;;;2.83;;
920;SDS011;447;51.332;6.778;2022-07-29T11:55:12;3.37;;;2.77;;
920;SDS011;447;51.332;6.778;2022-07-29T11:58:14;4.40;;;3.10;;
920;SDS011;447;51.332;6.778;2022-07-29T12:00:48;6.43;;;2.60;;
920;SDS011;447;51.332;6.778;2022-07-29T12:03:23;4.70;;;3.07;;
920;SDS011;447;51.332;6.778;2022-07-29T12:05:56;4.03;;;2.67;;
920;SDS011;447;51.332;6.778;2022-07-29T12:08:24;3.13;;;2.83;;
920;SDS011;447;51.332;6.778;2022-07-29T12:10:54;4.47;;;2.90;;
920;SDS011;447;51.332;6.778;2022-07-29T12:13:22;7.77;;;3.00;;
920;SDS011;447;51.332;6.778;2022-07-29T12:15:53;2.93;;;2.50;;
920;SDS011;447;51.332;6.778;2022-07-29T12:18:39;3.30;;;2.73;;
920;SDS011;447;51.332;6.778;2022-07-29T12:21:05;3.30;;;2.50;;
920;SDS011;447;51.332;6.778;2022-07-29T12:23:33;7.00;;;3.20;;
920;SDS011;447;51.332;6.778;2022-07-29T12:25:59;2.77;;;2.50;;
920;SDS011;447;51.332;6.778;2022-07-29T12:28:26;3.10;;;2.50;;
920;SDS011;447;51.332;6.778;2022-07-29T12:30:52;4.10;;;2.53;;
920;SDS011;447;51.332;6.778;2022-07-29T12:33:25;4.50;;;2.83;;
920;SDS011;447;51.332;6.778;2022-07-29T12:35:54;2.77;;;2.50;;
920;SDS011;447;51.332;6.778;2022-07-29T12:38:27;2.90;;;2.30;;
920;SDS011;447;51.332;6.778;2022-07-29T12:40:54;4.67;;;3.10;;
920;SDS011;447;51.332;6.778;2022-07-29T12:43:25;3.93;;;2.93;;
920;SDS011;447;51.332;6.778;2022-07-29T12:45:55;5.00;;;3.00;;
920;SDS011;447;51.332;6.778;2022-07-29T12:48:44;3.50;;;2.60;;
920;SDS011;447;51.332;6.778;2022-07-29T12:51:15;4.10;;;2.77;;
920;SDS011;447;51.332;6.778;2022-07-29T12:54:31;6.90;;;2.90;;
920;SDS011;447;51.332;6.778;2022-07-29T12:56:41;3.40;;;2.67;;
920;SDS011;447;51.332;6.778;2022-07-29T12:59:15;2.70;;;2.50;;
920;SDS011;447;51.332;6.778;2022-07-29T13:01:51;7.23;;;3.13;;
920;SDS011;447;51.332;6.778;2022-07-29T13:04:29;3.67;;;3.23;;
920;SDS011;447;51.332;6.778;2022-07-29T13:07:01;3.60;;;3.10;;
920;SDS011;447;51.332;6.778;2022-07-29T13:13:01;4.47;;;3.03;;
920;SDS011;447;51.332;6.778;2022-07-29T13:15:40;4.60;;;2.90;;
920;SDS011;447;51.332;6.778;2022-07-29T13:18:31;5.90;;;2.87;;
920;SDS011;447;51.332;6.778;2022-07-29T13:21:13;4.80;;;3.10;;
920;SDS011;447;51.332;6.778;2022-07-29T13:23:42;3.33;;;3.03;;
920;SDS011;447;51.332;6.778;2022-07-29T13:26:10;4.90;;;3.57;;
920;SDS011;447;51.332;6.778;2022-07-29T13:28:41;5.07;;;2.90;;
920;SDS011;447;51.332;6.778;2022-07-29T13:31:07;3.80;;;3.20;;
920;SDS011;447;51.332;6.778;2022-07-29T13:33:36;3.27;;;2.97;;
920;SDS011;447;51.332;6.778;2022-07-29T13:36:02;3.20;;;2.90;;
920;SDS011;447;51.332;6.778;2022-07-29T13:38:28;4.40;;;3.00;;
920;SDS011;447;51.332;6.778;2022-07-29T13:41:00;4.53;;;3.00;;
920;SDS011;447;51.332;6.778;2022-07-29T13:43:28;7.50;;;2.93;;
920;SDS011;447;51.332;6.778;2022-07-29T13:45:57;5.20;;;2.67;;
920;SDS011;447;51.332;6.778;2022-07-29T13:48:25;3.77;;;2.70;;
920;SDS011;447;51.332;6.778;2022-07-29T13:50:51;6.80;;;3.30;;
920;SDS011;447;51.332;6.778;2022-07-29T13:53:20;3.93;;;3.53;;
920;SDS011;447;51.332;6.778;2022-07-29T13:55:48;7.00;;;3.17;;
920;SDS011;447;51.332;6.778;2022-07-29T13:58:19;4.30;;;3.00;;
920;SDS011;447;51.332;6.778;2022-07-29T14:00:47;3.80;;;2.67;;
920;SDS011;447;51.332;6.778;2022-07-29T14:03:13;6.30;;;3.23;;
920;SDS011;447;51.332;6.778;2022-07-29T14:05:39;5.00;;;2.80;;
920;SDS011;447;51.332;6.778;2022-07-29T14:08:08;4.60;;;3.10;;
920;SDS011;447;51.332;6.778;2022-07-29T14:10:34;4.03;;;3.10;;
920;SDS011;447;51.332;6.778;2022-07-29T14:13:00;4.57;;;2.93;;
920;SDS011;447;51.332;6.778;2022-07-29T14:15:28;4.70;;;2.70;;
920;SDS011;447;51.332;6.778;2022-07-29T14:17:54;8.40;;;3.10;;
920;SDS011;447;51.332;6.778;2022-07-29T14:20:20;3.83;;;3.07;;
920;SDS011;447;51.332;6.778;2022-07-29T14:22:46;4.90;;;3.13;;
920;SDS011;447;51.332;6.778;2022-07-29T14:25:12;3.93;;;2.67;;
920;SDS011;447;51.332;6.778;2022-07-29T14:27:38;5.63;;;3.00;;
920;SDS011;447;51.332;6.778;2022-07-29T14:30:05;5.13;;;2.80;;
920;SDS011;447;51.332;6.778;2022-07-29T14:32:31;4.10;;;2.90;;
920;SDS011;447;51.332;6.778;2022-07-29T14:34:57;5.03;;;3.43;;
920;SDS011;447;51.332;6.778;2022-07-29T14:37:25;3.80;;;3.00;;
920;SDS011;447;51.332;6.778;2022-07-29T14:39:54;5.50;;;3.53;;
920;SDS011;447;51.332;6.778;2022-07-29T14:42:24;4.13;;;2.73;;
920;SDS011;447;51.332;6.778;2022-07-29T14:45:16;4.20;;;2.70;;
920;SDS011;447;51.332;6.778;2022-07-29T14:47:42;5.00;;;3.10;;
920;SDS011;447;51.332;6.778;2022-07-29T14:50:09;3.40;;;2.70;;
920;SDS011;447;51.332;6.778;2022-07-29T14:52:38;4.07;;;2.80;;
920;SDS011;447;51.332;6.778;2022-07-29T14:55:07;3.93;;;3.27;;
920;SDS011;447;51.332;6.778;2022-07-29T14:57:35;4.93;;;3.13;;
920;SDS011;447;51.332;6.778;2022-07-29T15:00:05;9.00;;;3.23;;
920;SDS011;447;51.332;6.778;2022-07-29T15:02:32;6.90;;;3.67;;
920;SDS011;447;51.332;6.778;2022-07-29T15:04:59;9.77;;;3.83;;
920;SDS011;447;51.332;6.778;2022-07-29T15:07:27;14.10;;;3.53;;
920;SDS011;447;51.332;6.778;2022-07-29T15:09:56;7.97;;;3.63;;
920;SDS011;447;51.332;6.778;2022-07-29T15:12:22;7.33;;;3.90;;
920;SDS011;447;51.332;6.778;2022-07-29T15:14:48;6.20;;;3.83;;
920;SDS011;447;51.332;6.778;2022-07-29T15:17:14;6.70;;;3.93;;
920;SDS011;447;51.332;6.778;2022-07-29T15:19:40;8.07;;;3.77;;
920;SDS011;447;51.332;6.778;2022-07-29T15:22:06;7.23;;;3.47;;
920;SDS011;447;51.332;6.778;2022-07-29T15:24:34;4.90;;;3.53;;
920;SDS011;447;51.332;6.778;2022-07-29T15:27:04;5.40;;;3.03;;
920;SDS011;447;51.332;6.778;2022-07-29T15:29:36;6.80;;;3.40;;
920;SDS011;447;51.332;6.778;2022-07-29T15:32:07;5.77;;;3.43;;
920;SDS011;447;51.332;6.778;2022-07-29T15:34:38;9.73;;;3.30;;
920;SDS011;447;51.332;6.778;2022-07-29T15:37:41;5.03;;;3.60;;
920;SDS011;447;51.332;6.778;2022-07-29T15:40:07;6.07;;;3.50;;
920;SDS011;447;51.332;6.778;2022-07-29T15:42:34;3.93;;;2.87;;
920;SDS011;447;51.332;6.778;2022-07-29T15:45:03;5.43;;;3.27;;
920;SDS011;447;51.332;6.778;2022-07-29T15:47:31;3.80;;;3.10;;
920;SDS011;447;51.332;6.778;2022-07-29T15:49:57;4.20;;;3.13;;
920;SDS011;447;51.332;6.778;2022-07-29T15:52:23;6.60;;;3.40;;
920;SDS011;447;51.332;6.778;2022-07-29T15:54:54;3.20;;;2.70;;
920;SDS011;447;51.332;6.778;2022-07-29T15:57:31;4.20;;;3.10;;
920;SDS011;447;51.332;6.778;2022-07-29T15:59:57;6.93;;;3.00;;
920;SDS011;447;51.332;6.778;2022-07-29T16:02:23;4.67;;;3.03;;
920;SDS011;447;51.332;6.778;2022-07-29T16:04:50;4.40;;;2.93;;
920;SDS011;447;51.332;6.778;2022-07-29T16:07:18;4.73;;;3.00;;
920;SDS011;447;51.332;6.778;2022-07-29T16:09:46;5.27;;;3.27;;
920;SDS011;447;51.332;6.778;2022-07-29T16:12:12;5.97;;;3.20;;
920;SDS011;447;51.332;6.778;2022-07-29T16:14:38;5.53;;;3.10;;
920;SDS011;447;51.332;6.778;2022-07-29T16:17:04;3.70;;;2.63;;
920;SDS011;447;51.332;6.778;2022-07-29T16:19:30;6.10;;;2.93;;
920;SDS011;447;51.332;6.778;2022-07-29T16:22:01;3.23;;;2.50;;
920;SDS011;447;51.332;6.778;2022-07-29T16:24:29;3.40;;;2.43;;
920;SDS011;447;51.332;6.778;2022-07-29T16:26:57;3.37;;;2.80;;
920;SDS011;447;51.332;6.778;2022-07-29T16:29:23;4.57;;;2.73;;
920;SDS011;447;51.332;6.778;2022-07-29T16:31:49;3.10;;;2.80;;
920;SDS011;447;51.332;6.778;2022-07-29T16:34:17;3.60;;;2.63;;
920;SDS011;447;51.332;6.778;2022-07-29T16:36:47;4.10;;;2.80;;
920;SDS011;447;51.332;6.778;2022-07-29T16:39:13;3.00;;;2.70;;
920;SDS011;447;51.332;6.778;2022-07-29T16:41:41;3.80;;;3.00;;
920;SDS011;447;51.332;6.778;2022-07-29T16:44:07;5.07;;;3.20;;
920;SDS011;447;51.332;6.778;2022-07-29T16:46:33;2.73;;;2.50;;
920;SDS011;447;51.332;6.778;2022-07-29T16:49:03;4.47;;;3.07;;
920;SDS011;447;51.332;6.778;2022-07-29T16:51:32;3.30;;;2.80;;
920;SDS011;447;51.332;6.778;2022-07-29T16:53:58;3.50;;;2.70;;
920;SDS011;447;51.332;6.778;2022-07-29T16:56:24;3.67;;;2.70;;
920;SDS011;447;51.332;6.778;2022-07-29T16:58:52;3.50;;;2.70;;
920;SDS011;447;51.332;6.778;2022-07-29T17:01:21;2.90;;;2.60;;
920;SDS011;447;51.332;6.778;2022-07-29T17:03:49;4.67;;;2.70;;
920;SDS011;447;51.332;6.778;2022-07-29T17:06:36;3.50;;;2.57;;
920;SDS011;447;51.332;6.778;2022-07-29T17:09:08;3.37;;;2.60;;